createdAt,value
2023-03-20T00:01:03.279Z,100.00
2023-03-20T00:06:05.608Z,100.00
2023-03-20T00:11:17.230Z,100.00
2023-03-20T00:16:20.532Z,100.00
2023-03-20T00:21:22.343Z,100.00
2023-03-20T00:26:26.576Z,100.00
2023-03-20T00:31:30.410Z,100.00
2023-03-20T00:36:32.261Z,100.00
2023-03-20T00:41:37.862Z,100.00
2023-03-20T00:46:41.447Z,100.00
2023-03-20T00:51:43.199Z,100.00
2023-03-20T00:56:45.754Z,100.00
2023-03-20T01:01:48.936Z,100.00
2023-03-20T01:06:50.831Z,100.00
2023-03-20T01:11:54.095Z,100.00
2023-03-20T01:16:57.234Z,100.00
2023-03-20T01:21:59.123Z,100.00
2023-03-20T01:27:04.054Z,100.00
2023-03-20T01:32:09.638Z,100.00
2023-03-20T01:37:12.437Z,100.00
2023-03-20T01:42:14.289Z,100.00
2023-03-20T01:47:19.869Z,100.00
2023-03-20T01:52:22.026Z,100.00
2023-03-20T01:57:24.346Z,100.00
2023-03-20T02:02:29.439Z,100.00
2023-03-20T02:07:31.938Z,100.00
2023-03-20T02:12:38.550Z,100.00
2023-03-20T02:17:43.544Z,100.00
2023-03-20T02:23:21.120Z,100.00
2023-03-20T02:28:54.216Z,100.00
2023-03-20T02:34:19.309Z,100.00
2023-03-20T02:39:32.376Z,100.00
2023-03-20T02:44:36.842Z,100.00
2023-03-20T02:49:49.037Z,100.00
2023-03-20T02:54:55.339Z,100.00
2023-03-20T03:00:00.109Z,100.00
2023-03-20T03:05:03.546Z,100.00
2023-03-20T03:10:08.562Z,100.00
2023-03-20T03:15:13.583Z,100.00
2023-03-20T03:20:19.870Z,100.00
2023-03-20T03:25:24.186Z,100.00
2023-03-20T03:30:27.093Z,100.00
2023-03-20T03:35:31.123Z,100.00
2023-03-20T03:40:35.589Z,100.00
2023-03-20T03:45:38.694Z,100.00
2023-03-20T03:50:46.382Z,100.00
2023-03-20T03:55:50.814Z,100.00
2023-03-20T04:00:52.962Z,100.00
2023-03-20T04:05:54.896Z,100.00
2023-03-20T04:10:57.913Z,100.00
2023-03-20T04:15:59.626Z,100.00
2023-03-20T04:21:03.252Z,100.00
2023-03-20T04:26:06.903Z,100.00
2023-03-20T04:31:10.269Z,100.00
2023-03-20T04:36:21.654Z,100.00
2023-03-20T04:41:26.498Z,100.00
2023-03-20T04:46:30.817Z,100.00
2023-03-20T04:51:33.275Z,100.00
2023-03-20T04:56:36.479Z,100.00
2023-03-20T05:01:51.224Z,100.00
2023-03-20T05:06:53.132Z,100.00
2023-03-20T05:11:59.019Z,100.00
2023-03-20T05:17:36.353Z,100.00
2023-03-20T05:22:56.447Z,100.00
2023-03-20T05:28:18.224Z,99.75
2023-03-20T05:33:28.017Z,99.23
2023-03-20T05:38:43.426Z,99.16
2023-03-20T05:43:57.135Z,98.67
2023-03-20T05:49:17.383Z,98.83
2023-03-20T05:54:37.858Z,98.70
2023-03-20T05:59:59.416Z,98.23
2023-03-20T06:05:19.587Z,97.79
2023-03-20T06:10:27.526Z,97.57
2023-03-20T06:15:30.689Z,97.62
2023-03-20T06:20:41.863Z,96.95
2023-03-20T06:25:44.104Z,96.08
2023-03-20T06:30:47.724Z,95.68
2023-03-20T06:35:54.389Z,94.99
2023-03-20T06:40:57.425Z,94.73
2023-03-20T06:46:00.484Z,96.55
2023-03-20T06:51:04.801Z,94.41
2023-03-20T06:56:11.888Z,93.06
2023-03-20T07:01:17.772Z,92.01
2023-03-20T07:06:19.667Z,91.39
2023-03-20T07:11:22.385Z,90.48
2023-03-20T07:16:28.603Z,90.09
2023-03-20T07:21:30.622Z,90.09
2023-03-20T07:26:32.850Z,90.08
2023-03-20T07:31:36.399Z,88.98
2023-03-20T07:36:44.804Z,90.88
2023-03-20T07:41:50.674Z,91.34
2023-03-20T07:47:06.021Z,91.92
2023-03-20T07:52:07.847Z,91.45
2023-03-20T07:57:09.696Z,91.51
2023-03-20T08:02:15.277Z,90.02
2023-03-20T08:07:16.926Z,88.75
2023-03-20T08:12:18.803Z,89.17
2023-03-20T08:17:22.119Z,89.78
2023-03-20T08:22:23.884Z,87.08
2023-03-20T08:27:25.902Z,85.29
2023-03-20T08:32:29.002Z,84.58
2023-03-20T08:37:30.682Z,84.10
2023-03-20T08:42:33.046Z,83.50
2023-03-20T08:47:36.141Z,81.68
2023-03-20T08:52:37.806Z,81.82
2023-03-20T08:57:39.436Z,82.71
2023-03-20T09:02:42.542Z,83.66
2023-03-20T09:07:44.299Z,85.09
2023-03-20T09:12:46.061Z,83.57
2023-03-20T09:17:49.045Z,83.82
2023-03-20T09:22:50.765Z,84.00
2023-03-20T09:27:55.149Z,83.92
2023-03-20T09:32:58.213Z,83.66
2023-03-20T09:37:59.935Z,83.88
2023-03-20T09:43:05.350Z,84.04
2023-03-20T09:48:11.582Z,84.50
2023-03-20T09:53:15.445Z,86.06
2023-03-20T09:58:20.607Z,84.90
2023-03-20T10:03:26.941Z,84.05
2023-03-20T10:08:29.607Z,82.66
2023-03-20T10:13:52.218Z,82.50
2023-03-20T10:18:59.172Z,81.88
2023-03-20T10:24:03.251Z,79.86
2023-03-20T10:29:06.713Z,81.11
2023-03-20T10:34:17.662Z,80.93
2023-03-20T10:39:22.120Z,79.91
2023-03-20T10:44:27.378Z,80.11
2023-03-20T10:49:34.503Z,77.98
2023-03-20T10:54:38.932Z,77.43
2023-03-20T10:59:42.096Z,77.43
2023-03-20T11:04:45.165Z,77.49
2023-03-20T11:09:46.838Z,78.13
2023-03-20T11:14:48.512Z,76.78
2023-03-20T11:19:51.462Z,74.49
2023-03-20T11:24:54.123Z,70.08
2023-03-20T11:29:56.014Z,65.89
2023-03-20T11:35:18.654Z,64.26
2023-03-20T11:40:22.782Z,63.04
2023-03-20T11:45:25.562Z,62.56
2023-03-20T11:50:31.348Z,63.04
2023-03-20T11:55:33.481Z,64.17
2023-03-20T12:00:36.904Z,64.81
2023-03-20T12:05:40.094Z,64.84
2023-03-20T12:10:42.844Z,66.40
2023-03-20T12:15:45.957Z,65.19
2023-03-20T12:20:54.053Z,66.08
2023-03-20T12:25:57.331Z,65.08
2023-03-20T12:31:04.729Z,61.77
2023-03-20T12:36:11.409Z,58.81
2023-03-20T12:41:15.266Z,59.73
2023-03-20T12:46:23.471Z,57.67
2023-03-20T12:51:31.828Z,58.72
2023-03-20T12:56:46.263Z,57.15
2023-03-20T13:01:52.879Z,56.07
2023-03-20T13:06:56.782Z,54.89
2023-03-20T13:12:00.511Z,56.33
2023-03-20T13:17:04.496Z,57.31
2023-03-20T13:22:08.728Z,59.03
2023-03-20T13:27:23.689Z,58.55
2023-03-20T13:32:31.214Z,57.69
2023-03-20T13:37:36.033Z,57.75
2023-03-20T13:42:39.318Z,57.62
2023-03-20T13:47:41.045Z,55.41
2023-03-20T13:52:46.268Z,54.43
2023-03-20T13:58:03.701Z,54.24
2023-03-20T14:03:15.335Z,53.81
2023-03-20T14:08:23.014Z,55.13
2023-03-20T14:13:27.459Z,56.07
2023-03-20T14:18:30.122Z,54.23
2023-03-20T14:23:35.534Z,54.67
2023-03-20T14:28:53.651Z,53.98
2023-03-20T14:34:09.463Z,54.14
2023-03-20T14:39:15.585Z,54.69
2023-03-20T14:44:24.148Z,53.83
2023-03-20T14:49:46.440Z,54.59
2023-03-20T14:54:53.891Z,55.10
2023-03-20T14:59:55.667Z,54.34
2023-03-20T15:04:57.663Z,55.54
2023-03-20T15:10:02.857Z,56.02
2023-03-20T15:15:05.706Z,56.08
2023-03-20T15:20:12.792Z,56.79
2023-03-20T15:25:18.492Z,57.11
2023-03-20T15:30:21.113Z,57.99
2023-03-20T15:35:23.611Z,58.37
2023-03-20T15:40:37.087Z,59.21
2023-03-20T15:45:45.624Z,59.39
2023-03-20T15:50:50.460Z,60.71
2023-03-20T15:56:16.933Z,60.05
2023-03-20T16:01:20.746Z,61.24
2023-03-20T16:06:22.925Z,60.96
2023-03-20T16:11:33.569Z,62.29
2023-03-20T16:16:37.475Z,62.33
2023-03-20T16:21:40.350Z,62.94
2023-03-20T16:26:44.862Z,63.18
2023-03-20T16:31:52.981Z,64.71
2023-03-20T16:36:57.404Z,63.24
2023-03-20T16:42:11.693Z,63.19
2023-03-20T16:47:17.595Z,64.27
2023-03-20T16:52:22.347Z,64.98
2023-03-20T16:57:25.807Z,65.49
2023-03-20T17:02:29.617Z,65.73
2023-03-20T17:07:31.316Z,66.19
2023-03-20T17:12:36.578Z,66.81
2023-03-20T17:17:38.366Z,69.00
2023-03-20T17:22:40.142Z,69.62
2023-03-20T17:27:44.000Z,69.78
2023-03-20T17:32:46.312Z,69.71
2023-03-20T17:37:48.822Z,70.09
2023-03-20T17:42:52.165Z,70.83
2023-03-20T17:47:54.136Z,70.46
2023-03-20T17:52:55.867Z,70.32
2023-03-20T17:57:58.879Z,70.36
2023-03-20T18:03:00.546Z,70.36
2023-03-20T18:08:02.684Z,71.29
2023-03-20T18:13:05.752Z,71.42
2023-03-20T18:18:08.955Z,71.44
2023-03-20T18:23:10.853Z,71.47
2023-03-20T18:28:22.693Z,71.53
2023-03-20T18:33:27.537Z,71.10
2023-03-20T18:38:30.602Z,70.69
2023-03-20T18:43:33.795Z,70.03
2023-03-20T18:48:35.684Z,70.31
2023-03-20T18:53:38.031Z,69.78
2023-03-20T18:58:41.347Z,69.92
2023-03-20T19:03:43.344Z,70.21
2023-03-20T19:08:45.359Z,70.03
2023-03-20T19:13:50.742Z,69.21
2023-03-20T19:18:53.043Z,69.10
2023-03-20T19:23:56.869Z,69.46
2023-03-20T19:29:01.351Z,68.97
2023-03-20T19:34:03.364Z,69.10
2023-03-20T19:39:06.429Z,70.05
2023-03-20T19:44:09.610Z,70.15
2023-03-20T19:49:17.948Z,71.09
2023-03-20T19:54:19.905Z,71.73
2023-03-20T19:59:23.353Z,72.00
2023-03-20T20:04:25.064Z,71.87
2023-03-20T20:09:28.556Z,72.47
2023-03-20T20:14:35.134Z,73.52
2023-03-20T20:19:37.062Z,74.76
2023-03-20T20:24:39.242Z,75.11
2023-03-20T20:29:42.487Z,75.68
2023-03-20T20:40:08.726Z,77.06
2023-03-20T20:45:12.370Z,77.09
2023-03-20T20:50:14.934Z,77.31
2023-03-20T20:55:36.691Z,77.82
2023-03-20T21:00:51.243Z,78.37
2023-03-20T21:05:53.556Z,79.12
2023-03-20T21:10:55.275Z,79.35
2023-03-20T21:15:58.948Z,79.66
2023-03-20T21:21:04.659Z,80.08
2023-03-20T21:26:07.283Z,80.33
2023-03-20T21:31:24.567Z,80.78
2023-03-20T21:36:28.444Z,81.27
2023-03-20T21:41:30.194Z,81.39
2023-03-20T21:58:02.473Z,80.69
2023-03-20T22:02:43.717Z,82.16
2023-03-20T22:08:46.876Z,82.73
2023-03-20T22:19:34.279Z,82.91
2023-03-20T22:24:44.868Z,83.10
2023-03-20T22:30:00.611Z,83.51
2023-03-20T22:35:30.900Z,84.39
2023-03-20T22:50:28.970Z,92.81
2023-03-20T22:55:30.646Z,93.73
2023-03-20T23:00:32.341Z,93.56
2023-03-20T23:05:37.384Z,94.37
2023-03-20T23:10:58.620Z,96.34
2023-03-20T23:16:00.315Z,97.02
2023-03-20T23:21:03.586Z,98.53
2023-03-20T23:26:06.120Z,100.00
2023-03-20T23:31:11.209Z,100.00
2023-03-20T23:36:28.850Z,100.00
2023-03-20T23:42:02.435Z,100.00
2023-03-20T23:46:59.753Z,100.00
2023-03-20T23:52:04.379Z,100.00
2023-03-20T23:57:06.270Z,100.00
